sensor_id;sensor_type;location;lat;lon;timestamp;temperature;humidity
13186;DHT22;6658;53.080;7.428;2024-01-30T00:00:05;5.30;99.90
13186;DHT22;6658;53.080;7.428;2024-01-30T00:02:35;5.30;99.90
13186;DHT22;6658;53.080;7.428;2024-01-30T00:05:01;5.20;99.90
13186;DHT22;6658;53.080;7.428;2024-01-30T00:07:29;5.20;99.90
13186;DHT22;6658;53.080;7.428;2024-01-30T00:09:55;5.20;99.90
13186;DHT22;6658;53.080;7.428;2024-01-30T00:12:21;5.10;99.90
13186;DHT22;6658;53.080;7.428;2024-01-30T00:14:58;5.10;99.90
13186;DHT22;6658;53.080;7.428;2024-01-30T00:17:30;5.10;99.90
13186;DHT22;6658;53.080;7.428;2024-01-30T00:19:59;5.00;99.90
13186;DHT22;6658;53.080;7.428;2024-01-30T00:22:28;5.00;99.90
13186;DHT22;6658;53.080;7.428;2024-01-30T00:24:59;5.00;99.90
13186;DHT22;6658;53.080;7.428;2024-01-30T00:27:26;5.00;99.90
13186;DHT22;6658;53.080;7.428;2024-01-30T00:29:57;5.00;99.90
13186;DHT22;6658;53.080;7.428;2024-01-30T00:32:26;5.00;99.90
13186;DHT22;6658;53.080;7.428;2024-01-30T00:34:52;4.90;99.90
13186;DHT22;6658;53.080;7.428;2024-01-30T00:37:20;4.90;99.90
13186;DHT22;6658;53.080;7.428;2024-01-30T00:39:46;4.90;99.90
13186;DHT22;6658;53.080;7.428;2024-01-30T00:42:12;4.90;99.90
13186;DHT22;6658;53.080;7.428;2024-01-30T00:44:38;4.90;99.90
13186;DHT22;6658;53.080;7.428;2024-01-30T00:47:04;4.90;99.90
13186;DHT22;6658;53.080;7.428;2024-01-30T00:49:30;4.90;99.90
13186;DHT22;6658;53.080;7.428;2024-01-30T00:51:56;4.90;99.90
13186;DHT22;6658;53.080;7.428;2024-01-30T00:54:22;4.90;99.90
13186;DHT22;6658;53.080;7.428;2024-01-30T00:56:48;4.90;99.90
13186;DHT22;6658;53.080;7.428;2024-01-30T00:59:13;4.90;99.90
13186;DHT22;6658;53.080;7.428;2024-01-30T01:01:39;4.90;99.90
13186;DHT22;6658;53.080;7.428;2024-01-30T01:04:05;4.90;99.90
13186;DHT22;6658;53.080;7.428;2024-01-30T01:06:30;4.90;99.90
13186;DHT22;6658;53.080;7.428;2024-01-30T01:08:56;4.90;99.90
13186;DHT22;6658;53.080;7.428;2024-01-30T01:11:22;4.90;99.90
13186;DHT22;6658;53.080;7.428;2024-01-30T01:13:48;5.00;99.90
13186;DHT22;6658;53.080;7.428;2024-01-30T01:16:14;5.00;99.90
13186;DHT22;6658;53.080;7.428;2024-01-30T01:18:39;5.00;99.90
13186;DHT22;6658;53.080;7.428;2024-01-30T01:21:05;5.00;99.90
13186;DHT22;6658;53.080;7.428;2024-01-30T01:23:31;5.00;99.90
13186;DHT22;6658;53.080;7.428;2024-01-30T01:25:57;5.10;99.90
13186;DHT22;6658;53.080;7.428;2024-01-30T01:28:28;5.10;99.90
13186;DHT22;6658;53.080;7.428;2024-01-30T01:30:54;5.20;99.90
13186;DHT22;6658;53.080;7.428;2024-01-30T01:33:27;5.20;99.90
13186;DHT22;6658;53.080;7.428;2024-01-30T01:35:53;5.30;99.90
13186;DHT22;6658;53.080;7.428;2024-01-30T01:38:19;5.30;99.90
13186;DHT22;6658;53.080;7.428;2024-01-30T01:40:45;5.40;99.90
13186;DHT22;6658;53.080;7.428;2024-01-30T01:43:11;5.40;99.90
13186;DHT22;6658;53.080;7.428;2024-01-30T01:45:37;5.40;99.90
13186;DHT22;6658;53.080;7.428;2024-01-30T01:48:03;5.40;99.90
13186;DHT22;6658;53.080;7.428;2024-01-30T01:50:29;5.40;99.90
13186;DHT22;6658;53.080;7.428;2024-01-30T01:52:57;5.40;99.90
13186;DHT22;6658;53.080;7.428;2024-01-30T01:55:26;5.40;99.90
13186;DHT22;6658;53.080;7.428;2024-01-30T01:57:53;5.40;99.90
13186;DHT22;6658;53.080;7.428;2024-01-30T02:39:49;5.50;99.90
13186;DHT22;6658;53.080;7.428;2024-01-30T02:42:15;5.50;99.90
13186;DHT22;6658;53.080;7.428;2024-01-30T02:44:41;5.60;99.90
13186;DHT22;6658;53.080;7.428;2024-01-30T02:47:07;5.60;99.90
13186;DHT22;6658;53.080;7.428;2024-01-30T02:49:32;5.60;99.90
13186;DHT22;6658;53.080;7.428;2024-01-30T02:51:58;5.70;99.90
13186;DHT22;6658;53.080;7.428;2024-01-30T02:54:24;5.80;99.90
13186;DHT22;6658;53.080;7.428;2024-01-30T02:56:49;5.80;99.90
13186;DHT22;6658;53.080;7.428;2024-01-30T02:59:15;5.90;99.90
13186;DHT22;6658;53.080;7.428;2024-01-30T03:01:44;5.90;99.90
13186;DHT22;6658;53.080;7.428;2024-01-30T03:04:10;5.90;99.90
13186;DHT22;6658;53.080;7.428;2024-01-30T03:06:36;5.90;99.90
13186;DHT22;6658;53.080;7.428;2024-01-30T03:09:02;5.90;99.90
13186;DHT22;6658;53.080;7.428;2024-01-30T03:11:28;5.90;99.90
13186;DHT22;6658;53.080;7.428;2024-01-30T03:13:54;6.00;99.90
13186;DHT22;6658;53.080;7.428;2024-01-30T03:16:19;6.00;99.90
13186;DHT22;6658;53.080;7.428;2024-01-30T03:18:45;6.00;99.90
13186;DHT22;6658;53.080;7.428;2024-01-30T03:21:11;6.00;99.90
13186;DHT22;6658;53.080;7.428;2024-01-30T03:23:36;6.00;99.90
13186;DHT22;6658;53.080;7.428;2024-01-30T03:26:02;6.00;99.90
13186;DHT22;6658;53.080;7.428;2024-01-30T03:28:29;6.00;99.90
13186;DHT22;6658;53.080;7.428;2024-01-30T03:30:55;6.00;99.90
13186;DHT22;6658;53.080;7.428;2024-01-30T03:33:21;6.10;99.90
13186;DHT22;6658;53.080;7.428;2024-01-30T03:35:46;6.10;99.90
13186;DHT22;6658;53.080;7.428;2024-01-30T03:38:12;6.10;99.90
13186;DHT22;6658;53.080;7.428;2024-01-30T03:40:38;6.10;99.90
13186;DHT22;6658;53.080;7.428;2024-01-30T03:43:03;6.00;99.90
13186;DHT22;6658;53.080;7.428;2024-01-30T03:45:30;6.00;99.90
13186;DHT22;6658;53.080;7.428;2024-01-30T03:47:56;6.00;99.90
13186;DHT22;6658;53.080;7.428;2024-01-30T03:50:21;6.10;99.90
13186;DHT22;6658;53.080;7.428;2024-01-30T03:52:47;6.00;99.90
13186;DHT22;6658;53.080;7.428;2024-01-30T03:55:13;6.10;99.90
13186;DHT22;6658;53.080;7.428;2024-01-30T03:57:38;6.10;99.90
13186;DHT22;6658;53.080;7.428;2024-01-30T04:00:05;6.10;99.90
13186;DHT22;6658;53.080;7.428;2024-01-30T04:05:51;6.10;99.90
13186;DHT22;6658;53.080;7.428;2024-01-30T04:08:17;6.10;99.90
13186;DHT22;6658;53.080;7.428;2024-01-30T04:10:43;6.10;99.90
13186;DHT22;6658;53.080;7.428;2024-01-30T04:13:08;6.20;99.90
13186;DHT22;6658;53.080;7.428;2024-01-30T04:15:35;6.30;99.90
13186;DHT22;6658;53.080;7.428;2024-01-30T04:18:00;6.40;99.90
13186;DHT22;6658;53.080;7.428;2024-01-30T04:20:26;6.40;99.90
13186;DHT22;6658;53.080;7.428;2024-01-30T04:22:52;6.50;99.90
13186;DHT22;6658;53.080;7.428;2024-01-30T04:25:17;6.50;99.90
13186;DHT22;6658;53.080;7.428;2024-01-30T04:27:43;6.60;99.90
13186;DHT22;6658;53.080;7.428;2024-01-30T04:30:09;6.70;99.90
13186;DHT22;6658;53.080;7.428;2024-01-30T04:32:35;6.70;99.90
13186;DHT22;6658;53.080;7.428;2024-01-30T04:35:02;6.70;99.90
13186;DHT22;6658;53.080;7.428;2024-01-30T04:37:28;6.70;99.90
13186;DHT22;6658;53.080;7.428;2024-01-30T04:39:53;6.70;99.90
13186;DHT22;6658;53.080;7.428;2024-01-30T04:42:19;6.80;99.90
13186;DHT22;6658;53.080;7.428;2024-01-30T04:44:45;6.80;99.90
13186;DHT22;6658;53.080;7.428;2024-01-30T04:47:10;6.90;99.90
13186;DHT22;6658;53.080;7.428;2024-01-30T04:49:39;6.90;99.90
13186;DHT22;6658;53.080;7.428;2024-01-30T04:52:08;6.90;99.90
13186;DHT22;6658;53.080;7.428;2024-01-30T04:54:34;6.90;99.90
13186;DHT22;6658;53.080;7.428;2024-01-30T04:57:01;6.90;99.90
13186;DHT22;6658;53.080;7.428;2024-01-30T04:59:26;7.00;99.90
13186;DHT22;6658;53.080;7.428;2024-01-30T05:01:52;7.00;99.90
13186;DHT22;6658;53.080;7.428;2024-01-30T05:04:18;7.10;99.90
13186;DHT22;6658;53.080;7.428;2024-01-30T05:06:43;7.10;99.90
13186;DHT22;6658;53.080;7.428;2024-01-30T05:09:09;7.10;99.90
13186;DHT22;6658;53.080;7.428;2024-01-30T05:11:39;7.20;99.90
13186;DHT22;6658;53.080;7.428;2024-01-30T05:14:05;7.20;99.90
13186;DHT22;6658;53.080;7.428;2024-01-30T05:16:31;7.20;99.90
13186;DHT22;6658;53.080;7.428;2024-01-30T05:18:57;7.20;99.90
13186;DHT22;6658;53.080;7.428;2024-01-30T05:21:23;7.20;99.90
13186;DHT22;6658;53.080;7.428;2024-01-30T05:23:48;7.20;99.90
13186;DHT22;6658;53.080;7.428;2024-01-30T05:26:14;7.20;99.90
13186;DHT22;6658;53.080;7.428;2024-01-30T05:28:40;7.20;99.90
13186;DHT22;6658;53.080;7.428;2024-01-30T05:31:05;7.20;99.90
13186;DHT22;6658;53.080;7.428;2024-01-30T05:33:31;7.30;99.90
13186;DHT22;6658;53.080;7.428;2024-01-30T05:35:57;7.20;99.90
13186;DHT22;6658;53.080;7.428;2024-01-30T05:38:23;7.30;99.90
13186;DHT22;6658;53.080;7.428;2024-01-30T05:40:48;7.30;99.90
13186;DHT22;6658;53.080;7.428;2024-01-30T05:43:14;7.30;99.90
13186;DHT22;6658;53.080;7.428;2024-01-30T05:45:40;7.30;99.90
13186;DHT22;6658;53.080;7.428;2024-01-30T05:48:05;7.30;99.90
13186;DHT22;6658;53.080;7.428;2024-01-30T05:50:31;7.30;99.90
13186;DHT22;6658;53.080;7.428;2024-01-30T05:52:57;7.30;99.90
13186;DHT22;6658;53.080;7.428;2024-01-30T05:55:22;7.30;99.90
13186;DHT22;6658;53.080;7.428;2024-01-30T05:57:48;7.30;99.90
13186;DHT22;6658;53.080;7.428;2024-01-30T06:00:14;7.30;99.90
13186;DHT22;6658;53.080;7.428;2024-01-30T06:02:40;7.30;99.90
13186;DHT22;6658;53.080;7.428;2024-01-30T06:05:06;7.30;99.90
13186;DHT22;6658;53.080;7.428;2024-01-30T06:07:32;7.30;99.90
13186;DHT22;6658;53.080;7.428;2024-01-30T06:09:57;7.30;99.90
13186;DHT22;6658;53.080;7.428;2024-01-30T06:12:23;7.30;99.90
13186;DHT22;6658;53.080;7.428;2024-01-30T06:14:49;7.30;99.90
13186;DHT22;6658;53.080;7.428;2024-01-30T06:17:14;7.40;99.90
13186;DHT22;6658;53.080;7.428;2024-01-30T06:19:40;7.40;99.90
13186;DHT22;6658;53.080;7.428;2024-01-30T06:22:06;7.50;99.90
13186;DHT22;6658;53.080;7.428;2024-01-30T06:24:32;7.50;99.90
13186;DHT22;6658;53.080;7.428;2024-01-30T06:26:59;7.50;99.90
13186;DHT22;6658;53.080;7.428;2024-01-30T06:29:24;7.60;99.90
13186;DHT22;6658;53.080;7.428;2024-01-30T06:31:52;7.60;99.90
13186;DHT22;6658;53.080;7.428;2024-01-30T06:34:18;7.70;99.90
13186;DHT22;6658;53.080;7.428;2024-01-30T06:36:43;7.70;99.90
13186;DHT22;6658;53.080;7.428;2024-01-30T06:39:09;7.70;99.90
13186;DHT22;6658;53.080;7.428;2024-01-30T06:41:35;7.80;99.90
13186;DHT22;6658;53.080;7.428;2024-01-30T06:44:02;7.80;99.90
13186;DHT22;6658;53.080;7.428;2024-01-30T06:46:29;7.90;99.90
13186;DHT22;6658;53.080;7.428;2024-01-30T06:48:55;7.90;99.90
13186;DHT22;6658;53.080;7.428;2024-01-30T06:51:20;7.90;99.90
13186;DHT22;6658;53.080;7.428;2024-01-30T06:53:46;7.90;99.90
13186;DHT22;6658;53.080;7.428;2024-01-30T06:56:12;8.00;99.90
13186;DHT22;6658;53.080;7.428;2024-01-30T06:58:38;8.00;99.90
13186;DHT22;6658;53.080;7.428;2024-01-30T07:01:04;8.00;99.90
13186;DHT22;6658;53.080;7.428;2024-01-30T07:03:29;8.10;99.90
13186;DHT22;6658;53.080;7.428;2024-01-30T07:05:55;8.00;99.90
13186;DHT22;6658;53.080;7.428;2024-01-30T07:08:21;8.00;99.90
13186;DHT22;6658;53.080;7.428;2024-01-30T07:10:47;8.00;99.90
13186;DHT22;6658;53.080;7.428;2024-01-30T07:13:13;8.00;99.90
13186;DHT22;6658;53.080;7.428;2024-01-30T07:15:42;8.00;99.90
13186;DHT22;6658;53.080;7.428;2024-01-30T07:18:07;8.00;99.90
13186;DHT22;6658;53.080;7.428;2024-01-30T07:20:35;8.00;99.90
13186;DHT22;6658;53.080;7.428;2024-01-30T07:23:00;8.00;99.90
13186;DHT22;6658;53.080;7.428;2024-01-30T07:25:26;8.00;99.90
13186;DHT22;6658;53.080;7.428;2024-01-30T07:27:55;8.10;99.90
13186;DHT22;6658;53.080;7.428;2024-01-30T07:30:21;8.10;99.90
13186;DHT22;6658;53.080;7.428;2024-01-30T07:32:47;8.10;99.90
13186;DHT22;6658;53.080;7.428;2024-01-30T07:35:13;8.10;99.90
13186;DHT22;6658;53.080;7.428;2024-01-30T07:37:39;8.10;99.90
13186;DHT22;6658;53.080;7.428;2024-01-30T07:40:05;8.00;99.90
13186;DHT22;6658;53.080;7.428;2024-01-30T07:42:32;8.00;99.90
13186;DHT22;6658;53.080;7.428;2024-01-30T07:44:59;8.00;99.90
13186;DHT22;6658;53.080;7.428;2024-01-30T07:47:24;8.00;99.90
13186;DHT22;6658;53.080;7.428;2024-01-30T07:49:50;8.10;99.90
13186;DHT22;6658;53.080;7.428;2024-01-30T07:52:16;8.10;99.90
13186;DHT22;6658;53.080;7.428;2024-01-30T07:54:42;8.10;99.90
13186;DHT22;6658;53.080;7.428;2024-01-30T07:57:08;8.10;99.90
13186;DHT22;6658;53.080;7.428;2024-01-30T07:59:33;8.10;99.90
13186;DHT22;6658;53.080;7.428;2024-01-30T08:01:59;8.10;99.90
13186;DHT22;6658;53.080;7.428;2024-01-30T08:04:25;8.10;99.90
13186;DHT22;6658;53.080;7.428;2024-01-30T08:06:50;8.20;99.90
13186;DHT22;6658;53.080;7.428;2024-01-30T08:09:16;8.20;99.90
13186;DHT22;6658;53.080;7.428;2024-01-30T08:11:42;8.20;99.90
13186;DHT22;6658;53.080;7.428;2024-01-30T08:14:07;8.20;99.90
13186;DHT22;6658;53.080;7.428;2024-01-30T08:16:33;8.30;99.90
13186;DHT22;6658;53.080;7.428;2024-01-30T08:18:59;8.30;99.90
13186;DHT22;6658;53.080;7.428;2024-01-30T08:21:25;8.30;99.90
13186;DHT22;6658;53.080;7.428;2024-01-30T08:23:50;8.40;99.90
13186;DHT22;6658;53.080;7.428;2024-01-30T08:26:16;8.40;99.90
13186;DHT22;6658;53.080;7.428;2024-01-30T08:28:42;8.40;99.90
13186;DHT22;6658;53.080;7.428;2024-01-30T08:31:09;8.40;99.90
13186;DHT22;6658;53.080;7.428;2024-01-30T08:33:35;8.40;99.90
13186;DHT22;6658;53.080;7.428;2024-01-30T08:36:01;8.50;99.90
13186;DHT22;6658;53.080;7.428;2024-01-30T08:38:26;8.50;99.90
13186;DHT22;6658;53.080;7.428;2024-01-30T08:40:52;8.50;99.90
13186;DHT22;6658;53.080;7.428;2024-01-30T08:43:18;8.50;99.90
13186;DHT22;6658;53.080;7.428;2024-01-30T08:45:43;8.50;99.90
13186;DHT22;6658;53.080;7.428;2024-01-30T08:48:09;8.60;99.90
13186;DHT22;6658;53.080;7.428;2024-01-30T08:50:35;8.60;99.90
13186;DHT22;6658;53.080;7.428;2024-01-30T08:53:00;8.60;99.90
13186;DHT22;6658;53.080;7.428;2024-01-30T08:55:26;8.70;99.90
13186;DHT22;6658;53.080;7.428;2024-01-30T08:57:52;8.70;99.90
13186;DHT22;6658;53.080;7.428;2024-01-30T09:00:18;8.80;99.90
13186;DHT22;6658;53.080;7.428;2024-01-30T09:02:44;8.80;99.90
13186;DHT22;6658;53.080;7.428;2024-01-30T09:05:10;8.90;99.90
13186;DHT22;6658;53.080;7.428;2024-01-30T09:07:35;8.90;99.90
13186;DHT22;6658;53.080;7.428;2024-01-30T09:10:01;9.00;99.90
13186;DHT22;6658;53.080;7.428;2024-01-30T09:12:27;9.00;99.90
13186;DHT22;6658;53.080;7.428;2024-01-30T09:14:52;9.00;99.90
13186;DHT22;6658;53.080;7.428;2024-01-30T09:17:18;9.10;99.90
13186;DHT22;6658;53.080;7.428;2024-01-30T09:19:46;9.10;99.90
13186;DHT22;6658;53.080;7.428;2024-01-30T09:22:12;9.20;99.90
13186;DHT22;6658;53.080;7.428;2024-01-30T09:24:37;9.30;99.90
13186;DHT22;6658;53.080;7.428;2024-01-30T09:27:03;9.30;99.90
13186;DHT22;6658;53.080;7.428;2024-01-30T09:29:29;9.40;99.90
13186;DHT22;6658;53.080;7.428;2024-01-30T09:31:55;9.40;99.90
13186;DHT22;6658;53.080;7.428;2024-01-30T09:34:20;9.50;99.90
13186;DHT22;6658;53.080;7.428;2024-01-30T09:36:46;9.60;99.90
13186;DHT22;6658;53.080;7.428;2024-01-30T09:39:12;9.60;99.90
13186;DHT22;6658;53.080;7.428;2024-01-30T09:42:11;9.70;99.90
13186;DHT22;6658;53.080;7.428;2024-01-30T09:44:43;9.80;99.90
13186;DHT22;6658;53.080;7.428;2024-01-30T09:47:09;9.90;99.90
13186;DHT22;6658;53.080;7.428;2024-01-30T09:49:35;9.90;99.90
13186;DHT22;6658;53.080;7.428;2024-01-30T09:52:02;10.00;99.90
13186;DHT22;6658;53.080;7.428;2024-01-30T09:54:32;10.10;99.90
13186;DHT22;6658;53.080;7.428;2024-01-30T09:56:59;10.20;99.90
13186;DHT22;6658;53.080;7.428;2024-01-30T09:59:25;10.30;99.90
13186;DHT22;6658;53.080;7.428;2024-01-30T10:01:51;10.40;99.90
13186;DHT22;6658;53.080;7.428;2024-01-30T10:04:17;10.40;99.90
13186;DHT22;6658;53.080;7.428;2024-01-30T10:06:43;10.50;99.90
13186;DHT22;6658;53.080;7.428;2024-01-30T10:09:09;10.50;99.90
13186;DHT22;6658;53.080;7.428;2024-01-30T10:11:38;10.50;99.90
13186;DHT22;6658;53.080;7.428;2024-01-30T10:14:04;10.60;99.90
13186;DHT22;6658;53.080;7.428;2024-01-30T10:16:30;10.70;99.90
13186;DHT22;6658;53.080;7.428;2024-01-30T10:18:57;10.90;99.90
13186;DHT22;6658;53.080;7.428;2024-01-30T10:21:23;11.00;99.90
13186;DHT22;6658;53.080;7.428;2024-01-30T10:23:49;11.10;99.90
13186;DHT22;6658;53.080;7.428;2024-01-30T10:26:16;11.10;99.90
13186;DHT22;6658;53.080;7.428;2024-01-30T10:28:43;11.20;99.90
13186;DHT22;6658;53.080;7.428;2024-01-30T10:31:08;11.20;99.90
13186;DHT22;6658;53.080;7.428;2024-01-30T10:33:35;11.30;99.90
13186;DHT22;6658;53.080;7.428;2024-01-30T10:36:02;11.30;99.90
13186;DHT22;6658;53.080;7.428;2024-01-30T10:38:31;11.30;99.90
13186;DHT22;6658;53.080;7.428;2024-01-30T10:40:59;11.30;99.90
13186;DHT22;6658;53.080;7.428;2024-01-30T10:43:32;11.30;99.90
13186;DHT22;6658;53.080;7.428;2024-01-30T10:46:19;11.30;99.90
13186;DHT22;6658;53.080;7.428;2024-01-30T10:48:51;11.30;99.90
13186;DHT22;6658;53.080;7.428;2024-01-30T10:51:22;11.30;99.90
13186;DHT22;6658;53.080;7.428;2024-01-30T10:53:49;11.40;99.90
13186;DHT22;6658;53.080;7.428;2024-01-30T10:56:16;11.40;99.90
13186;DHT22;6658;53.080;7.428;2024-01-30T10:58:43;11.40;99.90
13186;DHT22;6658;53.080;7.428;2024-01-30T11:01:10;11.40;99.90
13186;DHT22;6658;53.080;7.428;2024-01-30T11:03:36;11.40;99.90
13186;DHT22;6658;53.080;7.428;2024-01-30T11:06:02;11.40;99.90
13186;DHT22;6658;53.080;7.428;2024-01-30T11:08:31;11.50;99.90
13186;DHT22;6658;53.080;7.428;2024-01-30T11:10:58;11.50;99.90
13186;DHT22;6658;53.080;7.428;2024-01-30T11:13:30;11.50;99.90
13186;DHT22;6658;53.080;7.428;2024-01-30T11:16:03;11.60;99.90
13186;DHT22;6658;53.080;7.428;2024-01-30T11:18:31;11.70;99.90
13186;DHT22;6658;53.080;7.428;2024-01-30T11:20:58;11.70;99.90
13186;DHT22;6658;53.080;7.428;2024-01-30T11:23:25;11.80;99.90
13186;DHT22;6658;53.080;7.428;2024-01-30T11:25:52;11.90;99.90
13186;DHT22;6658;53.080;7.428;2024-01-30T11:28:18;11.90;99.90
13186;DHT22;6658;53.080;7.428;2024-01-30T11:30:44;11.90;99.90
13186;DHT22;6658;53.080;7.428;2024-01-30T11:33:11;11.90;99.90
13186;DHT22;6658;53.080;7.428;2024-01-30T11:35:38;12.00;99.90
13186;DHT22;6658;53.080;7.428;2024-01-30T11:38:08;12.00;99.90
13186;DHT22;6658;53.080;7.428;2024-01-30T11:40:37;12.00;99.90
13186;DHT22;6658;53.080;7.428;2024-01-30T11:43:05;12.00;99.90
13186;DHT22;6658;53.080;7.428;2024-01-30T11:45:31;11.90;99.90
13186;DHT22;6658;53.080;7.428;2024-01-30T11:47:57;11.90;99.90
13186;DHT22;6658;53.080;7.428;2024-01-30T11:50:25;11.90;99.90
13186;DHT22;6658;53.080;7.428;2024-01-30T11:52:51;11.80;99.90
13186;DHT22;6658;53.080;7.428;2024-01-30T11:55:18;11.80;99.90
13186;DHT22;6658;53.080;7.428;2024-01-30T11:57:44;11.70;99.90
13186;DHT22;6658;53.080;7.428;2024-01-30T12:00:17;11.70;99.90
13186;DHT22;6658;53.080;7.428;2024-01-30T12:02:54;11.70;99.90
13186;DHT22;6658;53.080;7.428;2024-01-30T12:05:24;11.70;99.90
13186;DHT22;6658;53.080;7.428;2024-01-30T12:07:50;11.70;99.90
13186;DHT22;6658;53.080;7.428;2024-01-30T12:10:16;11.70;99.90
13186;DHT22;6658;53.080;7.428;2024-01-30T12:12:46;11.80;99.90
13186;DHT22;6658;53.080;7.428;2024-01-30T12:15:13;11.90;99.90
13186;DHT22;6658;53.080;7.428;2024-01-30T12:17:39;11.90;99.90
13186;DHT22;6658;53.080;7.428;2024-01-30T12:20:10;11.90;99.90
13186;DHT22;6658;53.080;7.428;2024-01-30T12:22:41;11.80;99.90
13186;DHT22;6658;53.080;7.428;2024-01-30T12:25:11;11.80;99.90
13186;DHT22;6658;53.080;7.428;2024-01-30T12:27:38;11.70;99.90
13186;DHT22;6658;53.080;7.428;2024-01-30T12:30:11;11.70;99.90
13186;DHT22;6658;53.080;7.428;2024-01-30T12:32:43;11.60;99.90
13186;DHT22;6658;53.080;7.428;2024-01-30T12:35:14;11.60;99.90
13186;DHT22;6658;53.080;7.428;2024-01-30T12:37:40;11.50;99.90
13186;DHT22;6658;53.080;7.428;2024-01-30T12:40:07;11.60;99.90
13186;DHT22;6658;53.080;7.428;2024-01-30T12:42:33;11.50;99.90
13186;DHT22;6658;53.080;7.428;2024-01-30T12:44:59;11.60;99.90
13186;DHT22;6658;53.080;7.428;2024-01-30T12:47:25;11.60;99.90
13186;DHT22;6658;53.080;7.428;2024-01-30T12:49:51;11.60;99.90
13186;DHT22;6658;53.080;7.428;2024-01-30T12:52:19;11.60;99.90
13186;DHT22;6658;53.080;7.428;2024-01-30T12:54:46;11.60;99.90
13186;DHT22;6658;53.080;7.428;2024-01-30T12:57:11;11.70;99.90
13186;DHT22;6658;53.080;7.428;2024-01-30T12:59:37;11.80;99.90
13186;DHT22;6658;53.080;7.428;2024-01-30T13:02:03;12.00;99.90
13186;DHT22;6658;53.080;7.428;2024-01-30T13:04:29;12.10;99.90
13186;DHT22;6658;53.080;7.428;2024-01-30T13:06:55;12.30;99.90
13186;DHT22;6658;53.080;7.428;2024-01-30T13:09:22;12.40;99.90
13186;DHT22;6658;53.080;7.428;2024-01-30T13:11:48;12.40;99.90
13186;DHT22;6658;53.080;7.428;2024-01-30T13:14:14;12.50;99.90
13186;DHT22;6658;53.080;7.428;2024-01-30T13:16:40;12.50;99.90
13186;DHT22;6658;53.080;7.428;2024-01-30T13:19:06;12.60;99.90
13186;DHT22;6658;53.080;7.428;2024-01-30T13:21:31;12.60;99.90
13186;DHT22;6658;53.080;7.428;2024-01-30T13:23:57;12.50;99.90
13186;DHT22;6658;53.080;7.428;2024-01-30T13:26:23;12.40;99.90
13186;DHT22;6658;53.080;7.428;2024-01-30T13:28:49;12.40;99.90
13186;DHT22;6658;53.080;7.428;2024-01-30T13:31:15;12.40;99.90
13186;DHT22;6658;53.080;7.428;2024-01-30T13:33:42;12.30;99.90
13186;DHT22;6658;53.080;7.428;2024-01-30T13:36:09;12.30;99.90
13186;DHT22;6658;53.080;7.428;2024-01-30T13:38:35;12.20;99.90
13186;DHT22;6658;53.080;7.428;2024-01-30T13:41:01;12.20;99.90
13186;DHT22;6658;53.080;7.428;2024-01-30T13:43:27;12.20;99.90
13186;DHT22;6658;53.080;7.428;2024-01-30T13:45:53;12.20;99.90
13186;DHT22;6658;53.080;7.428;2024-01-30T13:48:19;12.10;99.90
13186;DHT22;6658;53.080;7.428;2024-01-30T13:50:44;12.00;99.90
13186;DHT22;6658;53.080;7.428;2024-01-30T13:53:11;11.90;99.90
13186;DHT22;6658;53.080;7.428;2024-01-30T13:55:37;11.80;99.90
13186;DHT22;6658;53.080;7.428;2024-01-30T13:58:05;11.70;99.90
13186;DHT22;6658;53.080;7.428;2024-01-30T14:00:31;11.70;99.90
13186;DHT22;6658;53.080;7.428;2024-01-30T14:02:56;11.60;99.90
13186;DHT22;6658;53.080;7.428;2024-01-30T14:05:24;11.60;99.90
13186;DHT22;6658;53.080;7.428;2024-01-30T14:07:51;11.50;99.90
13186;DHT22;6658;53.080;7.428;2024-01-30T14:10:17;11.50;99.90
13186;DHT22;6658;53.080;7.428;2024-01-30T14:12:43;11.40;99.90
13186;DHT22;6658;53.080;7.428;2024-01-30T14:15:14;11.40;99.90
13186;DHT22;6658;53.080;7.428;2024-01-30T14:17:47;11.40;99.90
13186;DHT22;6658;53.080;7.428;2024-01-30T14:20:14;11.40;99.90
13186;DHT22;6658;53.080;7.428;2024-01-30T14:22:42;11.30;99.90
13186;DHT22;6658;53.080;7.428;2024-01-30T14:25:08;11.30;99.90
13186;DHT22;6658;53.080;7.428;2024-01-30T14:27:35;11.20;99.90
13186;DHT22;6658;53.080;7.428;2024-01-30T14:30:01;11.20;99.90
13186;DHT22;6658;53.080;7.428;2024-01-30T14:32:27;11.10;99.90
13186;DHT22;6658;53.080;7.428;2024-01-30T14:34:52;11.10;99.90
13186;DHT22;6658;53.080;7.428;2024-01-30T14:37:19;11.00;99.90
13186;DHT22;6658;53.080;7.428;2024-01-30T14:39:44;11.00;99.90
13186;DHT22;6658;53.080;7.428;2024-01-30T14:42:10;10.90;99.90
13186;DHT22;6658;53.080;7.428;2024-01-30T14:44:36;10.90;99.90
13186;DHT22;6658;53.080;7.428;2024-01-30T14:47:02;10.90;99.90
13186;DHT22;6658;53.080;7.428;2024-01-30T14:49:27;10.80;99.90
13186;DHT22;6658;53.080;7.428;2024-01-30T14:51:53;10.80;99.90
13186;DHT22;6658;53.080;7.428;2024-01-30T14:54:19;10.80;99.90
13186;DHT22;6658;53.080;7.428;2024-01-30T14:56:45;10.70;99.90
13186;DHT22;6658;53.080;7.428;2024-01-30T14:59:11;10.70;99.90
13186;DHT22;6658;53.080;7.428;2024-01-30T15:01:37;10.60;99.90
13186;DHT22;6658;53.080;7.428;2024-01-30T15:04:03;10.60;99.90
13186;DHT22;6658;53.080;7.428;2024-01-30T15:06:29;10.60;99.90
13186;DHT22;6658;53.080;7.428;2024-01-30T15:08:54;10.60;99.90
13186;DHT22;6658;53.080;7.428;2024-01-30T15:11:20;10.60;99.90
13186;DHT22;6658;53.080;7.428;2024-01-30T15:13:46;10.50;99.90
13186;DHT22;6658;53.080;7.428;2024-01-30T15:16:12;10.50;99.90
13186;DHT22;6658;53.080;7.428;2024-01-30T15:18:37;10.50;99.90
13186;DHT22;6658;53.080;7.428;2024-01-30T15:21:03;10.40;99.90
13186;DHT22;6658;53.080;7.428;2024-01-30T15:23:29;10.40;99.90
13186;DHT22;6658;53.080;7.428;2024-01-30T15:25:55;10.30;99.90
13186;DHT22;6658;53.080;7.428;2024-01-30T15:28:37;10.30;99.90
13186;DHT22;6658;53.080;7.428;2024-01-30T15:31:03;10.20;99.90
13186;DHT22;6658;53.080;7.428;2024-01-30T15:33:29;10.20;99.90
13186;DHT22;6658;53.080;7.428;2024-01-30T15:35:55;10.10;99.90
13186;DHT22;6658;53.080;7.428;2024-01-30T15:38:21;10.10;99.90
13186;DHT22;6658;53.080;7.428;2024-01-30T15:40:47;10.00;99.90
13186;DHT22;6658;53.080;7.428;2024-01-30T15:43:12;10.00;99.90
13186;DHT22;6658;53.080;7.428;2024-01-30T15:45:38;10.00;99.90
13186;DHT22;6658;53.080;7.428;2024-01-30T15:48:04;9.90;99.90
13186;DHT22;6658;53.080;7.428;2024-01-30T15:50:30;10.00;99.90
13186;DHT22;6658;53.080;7.428;2024-01-30T15:52:56;10.00;99.90
13186;DHT22;6658;53.080;7.428;2024-01-30T15:55:22;10.00;99.90
13186;DHT22;6658;53.080;7.428;2024-01-30T15:57:47;10.00;99.90
13186;DHT22;6658;53.080;7.428;2024-01-30T16:00:14;10.00;99.90
13186;DHT22;6658;53.080;7.428;2024-01-30T16:02:40;10.00;99.90
13186;DHT22;6658;53.080;7.428;2024-01-30T16:05:06;9.90;99.90
13186;DHT22;6658;53.080;7.428;2024-01-30T16:07:33;9.90;99.90
13186;DHT22;6658;53.080;7.428;2024-01-30T16:09:58;9.90;99.90
13186;DHT22;6658;53.080;7.428;2024-01-30T16:12:24;9.90;99.90
13186;DHT22;6658;53.080;7.428;2024-01-30T16:14:50;9.90;99.90
13186;DHT22;6658;53.080;7.428;2024-01-30T16:17:15;9.90;99.90
13186;DHT22;6658;53.080;7.428;2024-01-30T16:19:41;9.80;99.90
13186;DHT22;6658;53.080;7.428;2024-01-30T16:22:08;9.80;99.90
13186;DHT22;6658;53.080;7.428;2024-01-30T16:24:34;9.80;99.90
13186;DHT22;6658;53.080;7.428;2024-01-30T16:27:00;9.80;99.90
13186;DHT22;6658;53.080;7.428;2024-01-30T16:29:26;9.80;99.90
13186;DHT22;6658;53.080;7.428;2024-01-30T16:31:51;9.80;99.90